createdAt,value
2017-05-02T00:01:30.392Z,87.44
2017-05-02T00:03:56.744Z,87.79
2017-05-02T00:06:23.229Z,89.74
2017-05-02T00:08:49.683Z,87.26
2017-05-02T00:11:16.022Z,82.60
2017-05-02T00:13:42.365Z,81.98
2017-05-02T00:16:08.722Z,80.81
2017-05-02T00:18:35.082Z,80.71
2017-05-02T00:21:01.431Z,83.03
2017-05-02T00:23:27.766Z,88.78
2017-05-02T00:25:54.184Z,90.28
2017-05-02T00:28:20.514Z,90.09
2017-05-02T00:30:46.843Z,88.91
2017-05-02T00:33:13.169Z,88.82
2017-05-02T00:35:39.536Z,88.54
2017-05-02T00:38:05.885Z,84.72
2017-05-02T00:40:32.251Z,85.76
2017-05-02T00:42:58.602Z,85.98
2017-05-02T00:45:25.142Z,82.76
2017-05-02T00:47:52.104Z,80.66
2017-05-02T00:50:18.539Z,80.48
2017-05-02T00:52:44.948Z,87.33
2017-05-02T00:55:11.269Z,89.21
2017-05-02T00:57:37.815Z,86.65
2017-05-02T01:00:04.172Z,89.39
2017-05-02T01:02:30.641Z,89.44
2017-05-02T01:04:57.009Z,90.95
2017-05-02T01:07:23.355Z,89.50
2017-05-02T01:09:49.870Z,83.85
2017-05-02T01:12:16.242Z,85.34
2017-05-02T01:14:42.598Z,88.89
2017-05-02T01:17:08.959Z,90.28
2017-05-02T01:19:35.424Z,88.46
2017-05-02T01:22:04.404Z,90.12
2017-05-02T01:24:31.202Z,89.48
2017-05-02T01:26:57.520Z,83.33
2017-05-02T01:29:23.825Z,81.69
2017-05-02T01:31:50.262Z,83.46
2017-05-02T01:34:16.646Z,84.59
2017-05-02T01:36:43.025Z,81.45
2017-05-02T01:39:09.423Z,80.87
2017-05-02T01:41:35.773Z,80.56
2017-05-02T01:44:02.132Z,80.97
2017-05-02T01:46:29.510Z,80.46
2017-05-02T01:48:55.905Z,82.92
2017-05-02T01:51:22.211Z,82.28
2017-05-02T01:53:48.681Z,81.27
2017-05-02T01:56:14.990Z,83.13
2017-05-02T01:58:41.441Z,83.26
2017-05-02T02:01:07.788Z,82.51
2017-05-02T02:03:34.133Z,81.62
2017-05-02T02:06:00.463Z,80.65
2017-05-02T02:08:26.844Z,83.19
2017-05-02T02:10:53.153Z,81.61
2017-05-02T02:13:19.489Z,83.14
2017-05-02T02:15:45.798Z,80.69
2017-05-02T02:18:12.198Z,81.43
2017-05-02T02:20:38.548Z,80.92
2017-05-02T02:23:04.899Z,80.98
2017-05-02T02:25:31.236Z,80.03
2017-05-02T02:27:57.651Z,79.91
2017-05-02T02:30:24.002Z,83.04
2017-05-02T02:32:50.291Z,81.16
2017-05-02T02:35:16.603Z,84.06
2017-05-02T02:37:43.046Z,84.92
2017-05-02T02:40:09.393Z,81.92
2017-05-02T02:42:35.700Z,84.58
2017-05-02T02:45:02.117Z,87.81
2017-05-02T02:47:28.443Z,86.31
2017-05-02T02:49:54.787Z,85.12
2017-05-02T02:52:21.134Z,82.80
2017-05-02T02:54:47.454Z,88.48
2017-05-02T02:57:13.797Z,88.20
2017-05-02T02:59:40.121Z,82.58
2017-05-02T03:02:06.442Z,81.07
2017-05-02T03:04:32.772Z,82.82
2017-05-02T03:06:59.122Z,82.00
2017-05-02T03:09:25.460Z,81.60
2017-05-02T03:11:51.787Z,80.83
2017-05-02T03:14:18.189Z,80.86
2017-05-02T03:16:44.524Z,81.25
2017-05-02T03:19:10.892Z,81.84
2017-05-02T03:21:37.216Z,83.10
2017-05-02T03:24:03.665Z,81.30
2017-05-02T03:26:30.012Z,80.74
2017-05-02T03:28:56.328Z,80.70
2017-05-02T03:31:22.684Z,82.42
2017-05-02T03:33:49.056Z,82.72
2017-05-02T03:36:15.389Z,81.58
2017-05-02T03:38:41.728Z,82.40
2017-05-02T03:41:08.058Z,85.19
2017-05-02T03:43:34.539Z,86.60
2017-05-02T03:46:00.869Z,82.35
2017-05-02T03:48:27.189Z,82.63
2017-05-02T03:50:53.506Z,81.17
2017-05-02T03:53:19.837Z,82.39
2017-05-02T03:55:46.211Z,81.86
2017-05-02T03:58:12.536Z,80.77
2017-05-02T04:00:38.870Z,80.74
2017-05-02T04:03:05.206Z,85.65
2017-05-02T04:05:31.552Z,81.67
2017-05-02T04:07:57.910Z,83.76
2017-05-02T04:10:24.251Z,81.31
2017-05-02T04:12:50.585Z,82.16
2017-05-02T04:15:16.948Z,80.67
2017-05-02T04:17:43.298Z,81.17
2017-05-02T04:20:09.789Z,82.14
2017-05-02T04:22:36.118Z,89.51
2017-05-02T04:25:02.460Z,82.39
2017-05-02T04:27:28.773Z,83.16
2017-05-02T04:29:55.174Z,83.74
2017-05-02T04:32:21.495Z,85.86
2017-05-02T04:37:20.884Z,83.57
2017-05-02T04:39:47.232Z,83.06
2017-05-02T04:42:13.558Z,88.37
2017-05-02T04:44:39.943Z,82.56
2017-05-02T04:47:06.286Z,81.31
2017-05-02T04:49:32.644Z,81.61
2017-05-02T04:51:58.971Z,88.50
2017-05-02T04:54:25.335Z,88.25
2017-05-02T04:56:52.128Z,83.63
2017-05-02T04:59:18.460Z,87.25
2017-05-02T05:01:44.766Z,82.30
2017-05-02T05:04:11.206Z,83.33
2017-05-02T05:06:37.544Z,85.50
2017-05-02T05:09:03.886Z,88.01
2017-05-02T05:11:30.271Z,89.03
2017-05-02T05:13:56.670Z,88.82
2017-05-02T05:16:22.994Z,85.13
2017-05-02T05:18:49.340Z,88.93
2017-05-02T05:21:15.689Z,82.69
2017-05-02T05:23:42.179Z,86.02
2017-05-02T05:26:08.478Z,88.08
2017-05-02T05:28:34.809Z,88.38
2017-05-02T05:31:01.166Z,86.40
2017-05-02T05:33:27.503Z,88.03
2017-05-02T05:35:53.859Z,87.78
2017-05-02T05:38:20.192Z,87.81
2017-05-02T05:40:46.520Z,83.79
2017-05-02T05:43:12.849Z,86.82
2017-05-02T05:45:39.188Z,90.09
2017-05-02T05:48:05.520Z,87.99
2017-05-02T05:50:31.838Z,88.38
2017-05-02T05:52:58.145Z,88.17
2017-05-02T05:55:24.475Z,87.63
2017-05-02T05:57:50.802Z,87.61
2017-05-02T06:00:17.147Z,88.11
2017-05-02T06:02:43.448Z,88.28
2017-05-02T06:05:09.765Z,88.45
2017-05-02T06:07:36.079Z,89.01
2017-05-02T06:10:02.436Z,88.36
2017-05-02T06:12:29.129Z,88.94
2017-05-02T06:14:55.478Z,89.73
2017-05-02T06:17:21.773Z,88.64
2017-05-02T06:19:48.184Z,90.41
2017-05-02T06:22:15.314Z,89.64
2017-05-02T06:24:41.652Z,90.74
2017-05-02T06:27:07.984Z,89.59
2017-05-02T06:29:34.329Z,89.14
2017-05-02T06:32:00.673Z,87.17
2017-05-02T06:34:27.002Z,90.41
2017-05-02T06:36:53.322Z,90.71
2017-05-02T06:39:19.628Z,90.68
2017-05-02T06:41:45.965Z,89.27
2017-05-02T06:44:12.310Z,89.32
2017-05-02T06:46:38.631Z,88.45
2017-05-02T06:49:04.955Z,89.72
2017-05-02T06:51:31.284Z,89.42
2017-05-02T06:53:57.649Z,89.33
2017-05-02T06:56:23.984Z,89.28
2017-05-02T06:58:50.304Z,88.98
2017-05-02T07:01:16.651Z,88.29
2017-05-02T07:03:42.984Z,87.98
2017-05-02T07:06:09.440Z,88.37
2017-05-02T07:08:35.772Z,88.06
2017-05-02T07:13:30.218Z,87.78
2017-05-02T07:15:56.506Z,87.91
2017-05-02T07:18:22.842Z,88.01
2017-05-02T07:20:49.178Z,88.31
2017-05-02T07:23:15.521Z,88.08
2017-05-02T07:25:41.858Z,87.44
2017-05-02T07:28:08.184Z,87.08
2017-05-02T07:30:34.506Z,87.53
2017-05-02T07:33:00.958Z,88.28
2017-05-02T07:35:27.297Z,88.37
2017-05-02T07:37:53.625Z,88.33
2017-05-02T07:40:19.963Z,87.41
2017-05-02T07:42:46.344Z,89.42
2017-05-02T07:45:12.655Z,87.84
2017-05-02T07:47:38.985Z,86.95
2017-05-02T07:50:05.308Z,88.05
2017-05-02T07:52:31.670Z,87.13
2017-05-02T07:54:57.997Z,88.12
2017-05-02T07:57:24.321Z,87.75
2017-05-02T07:59:50.646Z,88.95
2017-05-02T08:02:17.077Z,88.70
2017-05-02T08:04:43.417Z,87.27
2017-05-02T08:07:09.789Z,88.26
2017-05-02T08:09:36.128Z,88.04
2017-05-02T08:12:02.471Z,87.21
2017-05-02T08:14:28.791Z,87.47
2017-05-02T08:16:55.107Z,87.77
2017-05-02T08:19:21.438Z,86.36
2017-05-02T08:21:48.201Z,86.79
2017-05-02T08:24:14.530Z,87.32
2017-05-02T08:26:40.848Z,89.19
2017-05-02T08:29:07.193Z,86.08
2017-05-02T08:31:33.524Z,87.14
2017-05-02T08:33:59.836Z,86.20
2017-05-02T08:36:26.156Z,86.52
2017-05-02T08:38:52.496Z,87.00
2017-05-02T08:41:18.839Z,87.17
2017-05-02T08:43:45.190Z,86.66
2017-05-02T08:46:11.531Z,87.54
2017-05-02T08:48:37.990Z,86.44
2017-05-02T08:51:04.305Z,86.99
2017-05-02T08:53:30.670Z,87.49
2017-05-02T08:55:57.019Z,86.92
2017-05-02T08:58:23.475Z,87.24
2017-05-02T09:00:50.488Z,87.83
2017-05-02T09:03:16.837Z,87.95
2017-05-02T09:05:43.197Z,87.39
2017-05-02T09:08:09.563Z,87.83
2017-05-02T09:10:35.921Z,87.77
2017-05-02T09:13:02.243Z,87.37
2017-05-02T09:15:28.592Z,87.35
2017-05-02T09:17:54.936Z,88.02
2017-05-02T09:20:21.246Z,87.12
2017-05-02T09:22:47.607Z,86.93
2017-05-02T09:25:13.971Z,87.65
2017-05-02T09:27:40.364Z,86.92
2017-05-02T09:30:09.319Z,88.42
2017-05-02T09:32:35.674Z,87.77
2017-05-02T09:35:02.062Z,88.10
2017-05-02T09:37:28.960Z,87.62
2017-05-02T09:45:19.257Z,85.61
2017-05-02T09:47:45.637Z,84.78
2017-05-02T09:50:11.991Z,85.38
2017-05-02T09:52:38.343Z,85.58
2017-05-02T09:55:04.782Z,84.79
2017-05-02T09:57:31.125Z,84.49
2017-05-02T09:59:57.480Z,84.12
2017-05-02T10:02:23.858Z,84.28
2017-05-02T10:04:50.212Z,84.78
2017-05-02T10:07:16.548Z,84.71
2017-05-02T10:09:42.921Z,85.41
2017-05-02T10:12:09.249Z,84.75
2017-05-02T10:14:35.599Z,84.26
2017-05-02T10:17:01.937Z,84.10
2017-05-02T10:19:28.267Z,84.34
2017-05-02T10:21:55.481Z,83.01
2017-05-02T10:24:21.839Z,82.99
2017-05-02T10:26:48.582Z,82.69
2017-05-02T10:29:14.949Z,82.70
2017-05-02T10:31:41.303Z,83.39
2017-05-02T10:34:07.742Z,82.39
2017-05-02T10:36:34.077Z,82.77
2017-05-02T10:39:00.429Z,82.63
2017-05-02T10:41:26.788Z,82.79
2017-05-02T10:43:53.205Z,81.80
2017-05-02T10:46:19.548Z,81.37
2017-05-02T10:48:45.898Z,82.85
2017-05-02T10:51:12.227Z,82.91
2017-05-02T10:53:38.684Z,81.84
2017-05-02T10:56:05.031Z,82.64
2017-05-02T10:58:31.406Z,82.45
2017-05-02T11:00:57.750Z,81.96
2017-05-02T11:03:24.304Z,82.56
2017-05-02T11:05:50.646Z,82.75
2017-05-02T11:08:16.993Z,82.06
2017-05-02T11:10:43.435Z,81.21
2017-05-02T11:13:09.796Z,81.26
2017-05-02T11:15:36.146Z,81.12
2017-05-02T11:18:02.475Z,80.75
2017-05-02T11:20:28.793Z,82.06
2017-05-02T11:22:55.135Z,81.89
2017-05-02T11:25:21.499Z,81.53
2017-05-02T11:27:47.851Z,80.92
2017-05-02T11:30:14.283Z,81.49
2017-05-02T11:32:40.654Z,79.16
2017-05-02T11:35:07.014Z,79.44
2017-05-02T11:37:33.368Z,79.01
2017-05-02T11:39:59.752Z,78.58
2017-05-02T11:42:26.110Z,78.04
2017-05-02T11:44:52.460Z,78.17
2017-05-02T11:47:18.824Z,76.74
2017-05-02T11:49:45.321Z,78.70
2017-05-02T11:52:11.648Z,79.08
2017-05-02T11:54:37.981Z,78.21
2017-05-02T11:57:04.309Z,77.47
2017-05-02T11:59:30.628Z,76.73
2017-05-02T12:02:02.616Z,78.27
2017-05-02T12:04:29.837Z,78.30
2017-05-02T12:06:56.727Z,77.66
2017-05-02T12:09:23.073Z,79.42
2017-05-02T12:11:54.585Z,79.13
2017-05-02T12:14:20.936Z,79.60
2017-05-02T12:16:48.608Z,79.12
2017-05-02T12:19:16.250Z,79.54
2017-05-02T12:21:48.672Z,79.93
2017-05-02T12:24:20.372Z,79.17
2017-05-02T12:26:46.794Z,79.68
2017-05-02T12:29:19.496Z,79.73
2017-05-02T12:31:51.674Z,80.74
2017-05-02T12:34:18.170Z,79.72
2017-05-02T12:36:49.818Z,79.76
2017-05-02T12:39:16.432Z,80.57
2017-05-02T12:41:43.398Z,80.06
2017-05-02T12:44:15.846Z,79.66
2017-05-02T12:46:45.982Z,79.93
2017-05-02T12:49:16.482Z,78.81
2017-05-02T12:51:43.326Z,78.41
2017-05-02T12:54:10.251Z,78.34
2017-05-02T12:56:36.928Z,78.73
2017-05-02T12:59:04.086Z,77.78
2017-05-02T13:01:30.628Z,78.33
2017-05-02T13:03:56.998Z,78.31
2017-05-02T13:06:28.697Z,77.95
2017-05-02T13:08:55.031Z,77.96
2017-05-02T13:11:21.723Z,78.27
2017-05-02T13:13:51.526Z,77.43
2017-05-02T13:16:19.128Z,78.05
2017-05-02T13:18:45.636Z,78.58
2017-05-02T13:21:12.385Z,77.77
2017-05-02T13:23:43.922Z,78.13
2017-05-02T13:26:15.644Z,78.46
2017-05-02T13:28:43.558Z,78.89
2017-05-02T13:31:09.925Z,79.70
2017-05-02T13:33:36.466Z,78.76
2017-05-02T13:36:03.343Z,78.68
2017-05-02T13:38:30.017Z,78.79
2017-05-02T13:40:56.803Z,80.16
2017-05-02T13:43:23.393Z,78.83
2017-05-02T13:45:50.280Z,78.50
2017-05-02T13:48:23.116Z,78.02
2017-05-02T13:50:49.966Z,78.71
2017-05-02T13:53:16.790Z,77.05
2017-05-02T13:55:43.377Z,77.08
2017-05-02T13:58:10.773Z,76.60
2017-05-02T14:00:42.445Z,76.50
2017-05-02T14:03:09.166Z,76.14
2017-05-02T14:05:36.427Z,75.92
2017-05-02T14:08:10.843Z,75.24
2017-05-02T14:10:37.833Z,75.29
2017-05-02T14:13:04.343Z,74.44
2017-05-02T14:15:30.674Z,74.67
2017-05-02T14:17:57.364Z,74.62
2017-05-02T14:20:24.784Z,74.39
2017-05-02T14:22:56.510Z,75.21
2017-05-02T14:25:23.368Z,74.62
2017-05-02T14:27:49.823Z,74.91
2017-05-02T14:30:23.337Z,74.74
2017-05-02T14:32:51.117Z,75.65
2017-05-02T14:35:18.552Z,75.94
2017-05-02T14:37:45.288Z,76.13
2017-05-02T14:40:16.838Z,76.02
2017-05-02T14:42:43.494Z,76.34
2017-05-02T14:45:10.873Z,76.12
2017-05-02T14:47:37.596Z,76.18
2017-05-02T14:50:04.014Z,76.70
2017-05-02T14:52:32.273Z,76.59
2017-05-02T14:55:04.122Z,77.12
2017-05-02T14:57:42.254Z,77.32
2017-05-02T15:00:08.966Z,77.89
2017-05-02T15:02:38.686Z,78.29
2017-05-02T15:05:06.428Z,78.48
2017-05-02T15:07:33.995Z,79.57
2017-05-02T15:10:00.723Z,80.52
2017-05-02T15:12:27.520Z,81.30
2017-05-02T15:14:53.853Z,82.07
2017-05-02T15:17:25.849Z,83.16
2017-05-02T15:19:53.121Z,83.02
2017-05-02T15:22:19.608Z,83.57
2017-05-02T15:24:46.044Z,84.14
2017-05-02T15:27:15.466Z,83.74
2017-05-02T15:29:47.291Z,83.90
2017-05-02T15:32:14.113Z,83.28
2017-05-02T15:34:40.785Z,84.42
2017-05-02T15:37:07.472Z,83.59
2017-05-02T15:39:34.836Z,83.55
2017-05-02T15:42:02.288Z,83.94
2017-05-02T15:44:31.758Z,83.95
2017-05-02T15:46:58.132Z,84.19
2017-05-02T15:49:24.652Z,84.45
2017-05-02T15:51:51.198Z,83.75
2017-05-02T15:54:18.956Z,83.95
2017-05-02T15:56:46.351Z,83.60
2017-05-02T15:59:17.798Z,83.08
2017-05-02T16:01:49.601Z,84.50
2017-05-02T16:04:17.184Z,83.06
2017-05-02T16:06:43.538Z,84.30
2017-05-02T16:09:09.992Z,83.32
2017-05-02T16:11:36.594Z,83.41
2017-05-02T16:14:08.160Z,83.14
2017-05-02T16:16:39.970Z,84.43
2017-05-02T16:19:06.633Z,84.29
2017-05-02T16:21:33.413Z,84.57
2017-05-02T16:24:00.219Z,83.29
2017-05-02T16:26:27.791Z,83.20
2017-05-02T16:28:54.565Z,83.17
2017-05-02T16:31:26.298Z,83.79
2017-05-02T16:33:53.414Z,82.80
2017-05-02T16:36:25.112Z,82.92
2017-05-02T16:38:53.400Z,83.83
2017-05-02T16:41:19.871Z,82.69
2017-05-02T16:43:46.281Z,83.36
2017-05-02T16:46:12.734Z,84.46
2017-05-02T16:48:39.282Z,84.90
2017-05-02T16:51:11.146Z,84.76
2017-05-02T16:53:38.532Z,83.86
2017-05-02T16:56:05.345Z,83.74
2017-05-02T16:58:31.874Z,83.20
2017-05-02T17:00:58.302Z,83.43
2017-05-02T17:03:29.793Z,83.81
2017-05-02T17:05:59.219Z,83.91
2017-05-02T17:08:25.983Z,83.95
2017-05-02T17:10:52.544Z,85.68
2017-05-02T17:13:19.993Z,86.62
2017-05-02T17:15:50.970Z,85.63
2017-05-02T17:18:18.343Z,85.13
2017-05-02T17:20:51.425Z,86.62
2017-05-02T17:23:23.447Z,86.31
2017-05-02T17:25:55.188Z,86.11
2017-05-02T17:28:21.798Z,86.20
2017-05-02T17:30:53.836Z,84.63
2017-05-02T17:33:21.326Z,85.52
2017-05-02T17:35:47.737Z,86.17
2017-05-02T17:38:14.353Z,87.75
2017-05-02T17:40:47.437Z,86.62
2017-05-02T17:43:16.962Z,86.69
2017-05-02T17:45:43.413Z,87.02
2017-05-02T17:50:42.218Z,85.68
2017-05-02T17:53:08.677Z,86.18
2017-05-02T17:55:35.084Z,86.84
2017-05-02T17:58:01.474Z,86.87
2017-05-02T18:00:27.960Z,86.65
2017-05-02T18:02:54.305Z,86.94
2017-05-02T18:05:20.867Z,86.62
2017-05-02T18:07:47.243Z,86.83
2017-05-02T18:10:14.167Z,85.82
2017-05-02T18:12:41.411Z,88.05
2017-05-02T18:15:08.345Z,87.74
2017-05-02T18:17:35.253Z,86.64
2017-05-02T18:20:02.744Z,86.79
2017-05-02T18:22:29.212Z,87.82
2017-05-02T18:24:56.735Z,87.54
2017-05-02T18:27:24.064Z,87.95
2017-05-02T18:29:54.182Z,86.81
2017-05-02T18:32:28.111Z,86.39
2017-05-02T18:34:58.686Z,87.50
2017-05-02T18:37:29.182Z,87.08
2017-05-02T18:40:00.079Z,87.22
2017-05-02T18:42:31.999Z,87.43
2017-05-02T18:45:03.043Z,88.21
2017-05-02T18:47:35.356Z,87.91
2017-05-02T18:50:06.650Z,88.67
2017-05-02T18:52:38.229Z,86.21
2017-05-02T18:55:08.821Z,86.56
2017-05-02T18:57:40.168Z,86.79
2017-05-02T19:00:12.335Z,87.63
2017-05-02T19:02:43.966Z,85.24
2017-05-02T19:05:14.739Z,89.24
2017-05-02T19:07:45.752Z,89.32
2017-05-02T19:10:16.267Z,89.40
2017-05-02T19:12:46.507Z,88.69
2017-05-02T19:15:17.482Z,86.97
2017-05-02T19:17:48.923Z,88.49
2017-05-02T19:20:20.381Z,89.28
2017-05-02T19:22:49.019Z,87.56
2017-05-02T19:25:17.043Z,88.12
2017-05-02T19:27:44.813Z,88.01
2017-05-02T19:30:12.689Z,88.24
2017-05-02T19:32:40.872Z,88.50
2017-05-02T19:35:07.460Z,87.93
2017-05-02T19:37:34.454Z,88.24
2017-05-02T19:40:01.667Z,89.07
2017-05-02T19:42:33.641Z,87.38
2017-05-02T19:45:00.903Z,87.56
2017-05-02T19:47:27.845Z,87.36
2017-05-02T19:49:54.230Z,87.87
2017-05-02T19:52:20.705Z,87.68
2017-05-02T19:54:47.096Z,88.19
2017-05-02T19:57:13.847Z,88.22
2017-05-02T19:59:41.058Z,87.95
2017-05-02T20:02:08.722Z,87.27
2017-05-02T20:04:35.468Z,87.96
2017-05-02T20:07:02.047Z,88.58
2017-05-02T20:09:28.861Z,88.20
2017-05-02T20:11:55.258Z,87.83
2017-05-02T20:14:21.991Z,88.25
2017-05-02T20:16:48.385Z,88.17
2017-05-02T20:19:14.756Z,87.74
2017-05-02T20:21:41.101Z,87.60
2017-05-02T20:24:07.605Z,87.85
2017-05-02T20:26:34.001Z,88.45
2017-05-02T20:29:00.359Z,87.89
2017-05-02T20:31:26.735Z,89.42
2017-05-02T20:33:53.522Z,88.18
2017-05-02T20:36:19.921Z,88.08
2017-05-02T20:38:46.310Z,87.50
2017-05-02T20:41:12.760Z,87.84
2017-05-02T20:43:39.189Z,88.23
2017-05-02T20:46:05.565Z,88.34
2017-05-02T20:48:31.951Z,87.90
2017-05-02T20:50:58.459Z,89.92
2017-05-02T20:53:24.867Z,88.96
2017-05-02T20:55:51.223Z,88.05
2017-05-02T20:58:18.224Z,87.96
2017-05-02T21:00:44.588Z,89.03
2017-05-02T21:03:11.719Z,87.81
2017-05-02T21:05:38.332Z,87.95
2017-05-02T21:08:04.652Z,88.22
2017-05-02T21:10:31.000Z,87.76
2017-05-02T21:12:57.331Z,88.05
2017-05-02T21:15:23.750Z,86.97
2017-05-02T21:17:51.120Z,87.70
2017-05-02T21:20:17.491Z,86.84
2017-05-02T21:22:43.977Z,87.36
2017-05-02T21:25:10.282Z,88.46
2017-05-02T21:27:36.595Z,88.14
2017-05-02T21:30:02.939Z,88.40
2017-05-02T21:32:29.429Z,89.59
2017-05-02T21:34:56.130Z,88.77
2017-05-02T21:37:22.913Z,88.14
2017-05-02T21:39:49.622Z,88.17
2017-05-02T21:42:16.862Z,87.93
2017-05-02T21:44:43.884Z,88.91
2017-05-02T21:47:10.975Z,88.10
2017-05-02T21:49:37.319Z,88.58
2017-05-02T21:52:04.411Z,87.23
2017-05-02T21:54:30.770Z,88.60
2017-05-02T21:56:57.105Z,89.15
2017-05-02T21:59:23.438Z,88.94
2017-05-02T22:01:50.017Z,88.82
2017-05-02T22:04:16.388Z,89.09
2017-05-02T22:06:43.332Z,88.74
2017-05-02T22:09:09.996Z,89.10
2017-05-02T22:11:37.166Z,89.34
2017-05-02T22:14:03.954Z,89.54
2017-05-02T22:16:31.230Z,88.75
2017-05-02T22:18:57.601Z,90.08
2017-05-02T22:21:23.939Z,88.54
2017-05-02T22:23:50.455Z,89.08
2017-05-02T22:26:18.306Z,89.76
2017-05-02T22:28:46.173Z,89.28
2017-05-02T22:31:12.541Z,88.48
2017-05-02T22:33:39.309Z,88.84
2017-05-02T22:36:05.793Z,89.15
2017-05-02T22:38:33.404Z,89.15
2017-05-02T22:41:00.605Z,88.64
2017-05-02T22:43:28.890Z,88.09
2017-05-02T22:45:55.455Z,90.25
2017-05-02T22:48:21.827Z,87.76
2017-05-02T22:50:48.175Z,87.24
2017-05-02T22:53:14.522Z,87.65
2017-05-02T22:55:40.942Z,88.55
2017-05-02T22:58:07.286Z,88.24
2017-05-02T23:00:33.589Z,89.04
2017-05-02T23:02:59.936Z,87.29
2017-05-02T23:05:26.404Z,86.84
2017-05-02T23:07:52.731Z,89.18
2017-05-02T23:10:19.073Z,90.05
2017-05-02T23:12:45.397Z,89.39
2017-05-02T23:15:11.805Z,89.39
2017-05-02T23:17:38.566Z,90.67
2017-05-02T23:20:09.747Z,90.24
2017-05-02T23:22:39.685Z,90.67
2017-05-02T23:25:06.163Z,90.31
2017-05-02T23:27:32.508Z,89.99
2017-05-02T23:29:58.915Z,89.62
2017-05-02T23:32:25.249Z,90.67
2017-05-02T23:34:51.559Z,90.12
2017-05-02T23:37:18.031Z,90.36
2017-05-02T23:39:44.354Z,90.56
2017-05-02T23:42:10.709Z,90.29
2017-05-02T23:44:37.153Z,89.50
2017-05-02T23:47:03.661Z,87.75
2017-05-02T23:49:29.992Z,90.27
2017-05-02T23:51:56.325Z,89.54
2017-05-02T23:54:22.647Z,90.57
2017-05-02T23:56:49.071Z,90.08
2017-05-02T23:59:15.402Z,89.69
